createdAt,value
2018-09-06T00:14:55.358Z,18.72
2018-09-06T00:35:35.547Z,18.72
2018-09-06T00:56:16.962Z,18.54
2018-09-06T01:17:00.222Z,18.48
2018-09-06T01:37:37.338Z,18.28
2018-09-06T01:58:16.299Z,17.99
2018-09-06T02:18:58.022Z,17.78
2018-09-06T02:39:41.284Z,17.53
2018-09-06T03:00:24.851Z,17.38
2018-09-06T03:21:06.879Z,17.37
2018-09-06T03:41:48.299Z,17.32
2018-09-06T04:02:27.564Z,17.28
2018-09-06T04:23:07.749Z,17.16
2018-09-06T04:43:47.053Z,17.05
2018-09-06T05:04:29.425Z,16.83
2018-09-06T05:25:12.614Z,16.83
2018-09-06T05:45:59.872Z,16.82
2018-09-06T06:06:42.209Z,16.88
2018-09-06T06:27:20.566Z,17.11
2018-09-06T06:48:03.816Z,17.41
2018-09-06T07:08:42.156Z,17.53
2018-09-06T07:29:23.578Z,18.07
2018-09-06T07:49:59.970Z,18.59
2018-09-06T08:10:39.306Z,19.10
2018-09-06T08:31:19.284Z,19.54
2018-09-06T08:52:03.839Z,20.10
2018-09-06T09:12:43.901Z,20.50
2018-09-06T09:33:25.007Z,20.85
2018-09-06T09:54:04.272Z,21.14
2018-09-06T10:14:46.612Z,21.42
2018-09-06T10:35:32.086Z,22.10
2018-09-06T10:56:14.657Z,22.81
2018-09-06T11:16:56.865Z,21.91
2018-09-06T11:37:36.242Z,19.99
2018-09-06T11:58:19.227Z,20.16
2018-09-06T12:18:58.491Z,20.73
2018-09-06T12:39:39.908Z,21.35
2018-09-06T13:00:17.020Z,21.73
2018-09-06T13:20:58.442Z,22.02
2018-09-06T13:41:42.621Z,22.05
2018-09-06T14:02:28.958Z,21.98
2018-09-06T14:23:11.292Z,22.21
2018-09-06T14:43:52.803Z,22.05
2018-09-06T15:04:32.897Z,21.96
2018-09-06T15:25:16.770Z,21.39
2018-09-06T15:45:59.418Z,20.91
2018-09-06T16:06:38.685Z,20.92
2018-09-06T16:27:17.949Z,21.09
2018-09-06T16:48:02.436Z,20.98
2018-09-06T17:08:41.712Z,20.57
2018-09-06T17:29:18.822Z,20.42
2018-09-06T17:50:01.160Z,20.02
2018-09-06T18:10:45.699Z,19.74
2018-09-06T18:31:26.985Z,19.36
2018-09-06T18:52:06.943Z,19.04
2018-09-06T19:12:42.216Z,18.88
2018-09-06T19:33:20.563Z,18.78
2018-09-06T19:54:01.031Z,18.72
2018-09-06T20:14:45.353Z,18.70
2018-09-06T20:35:22.355Z,18.66
2018-09-06T20:56:04.691Z,18.58
2018-09-06T21:16:44.883Z,18.46
2018-09-06T21:37:25.072Z,18.32
2018-09-06T21:58:06.489Z,18.18
2018-09-06T22:36:52.782Z,17.68
2018-09-06T22:57:40.129Z,17.55
2018-09-06T23:18:19.164Z,17.38
2018-09-06T23:39:02.426Z,17.10
2018-09-06T23:59:41.694Z,17.02
